Time;durP1;ratioP1;P1;durP2;ratioP2;P2;SDS_P1;SDS_P2;PMS_P1;PMS_P2;Temp;Humidity;BMP_temperature;BMP_pressure;BME280_temperature;BME280_humidity;BME280_pressure;Samples;Min_cycle;Max_cycle;Signal;HPM_P1;HPM_P2
2021/11/09 00:02:09;;;;;;;2.28;1.35;;;;;;;-145.06;100.00;60892.56;4878959;28;20184;-88
2021/11/09 00:04:58;;;;;;;2.40;1.20;;;;;;;-145.06;100.00;60892.56;4877382;28;20064;-88
2021/11/09 00:07:45;;;;;;;3.55;1.40;;;;;;;-145.06;100.00;60892.56;4874749;28;20200;-88
2021/11/09 00:10:28;;;;;;;3.83;1.38;;;;;;;-145.06;100.00;60892.56;4860089;28;20149;-88
2021/11/09 00:13:06;;;;;;;1.80;1.10;;;;;;;-145.06;100.00;60892.56;4863901;28;20033;-87
2021/11/09 00:15:45;;;;;;;4.95;1.75;;;;;;;-145.06;100.00;60892.56;4866326;28;20032;-87
2021/11/09 00:18:24;;;;;;;4.63;1.50;;;;;;;-145.06;100.00;60892.56;4876407;28;20360;-87
2021/11/09 00:21:04;;;;;;;3.03;1.20;;;;;;;-145.06;100.00;60892.56;4880740;28;20024;-88
2021/11/09 00:23:43;;;;;;;3.50;1.48;;;;;;;-145.06;100.00;60892.56;4868449;28;20494;-88
2021/11/09 00:26:22;;;;;;;2.80;1.73;;;;;;;-145.06;100.00;60892.56;4873955;28;20036;-88
2021/11/09 00:29:01;;;;;;;2.67;1.30;;;;;;;-145.06;100.00;60892.56;4874676;28;20029;-87
2021/11/09 00:31:40;;;;;;;3.13;1.40;;;;;;;-145.06;100.00;60892.56;4874568;28;20279;-88
2021/11/09 00:34:19;;;;;;;3.27;1.50;;;;;;;-145.06;100.00;60892.56;4871333;28;20279;-88
2021/11/09 00:36:58;;;;;;;2.50;1.13;;;;;;;-145.06;100.00;60892.56;4869184;28;20033;-88
2021/11/09 00:39:40;;;;;;;8.50;1.60;;;;;;;-145.06;100.00;60892.56;4868683;28;20048;-88
2021/11/09 00:42:19;;;;;;;3.70;1.42;;;;;;;-145.06;100.00;60892.56;4867226;28;20813;-88
2021/11/09 00:44:57;;;;;;;2.67;1.63;;;;;;;-145.06;100.00;60892.56;4872155;28;20053;-87
2021/11/09 00:47:36;;;;;;;5.57;1.52;;;;;;;-145.06;100.00;60892.56;4870448;28;20454;-87
2021/11/09 00:50:19;;;;;;;2.72;1.42;;;;;;;-145.06;100.00;60892.56;4873952;28;20115;-87
2021/11/09 00:52:58;;;;;;;4.45;1.50;;;;;;;-145.06;100.00;60892.56;4860500;28;20032;-87
2021/11/09 00:55:39;;;;;;;2.37;1.27;;;;;;;-145.06;100.00;60892.56;4874314;28;20029;-87
2021/11/09 00:58:18;;;;;;;3.90;1.88;;;;;;;-145.06;100.00;60892.56;4869517;28;20030;-87
2021/11/09 01:00:57;;;;;;;3.30;1.58;;;;;;;-145.06;100.00;60892.56;4877365;28;20024;-87
2021/11/09 01:03:36;;;;;;;2.03;1.27;;;;;;;-145.06;100.00;60892.56;4857471;28;20384;-87
2021/11/09 01:06:15;;;;;;;2.25;1.58;;;;;;;-145.06;100.00;60892.56;4863574;28;20486;-88
2021/11/09 01:08:54;;;;;;;1.70;1.13;;;;;;;6.79;100.00;60892.56;4873219;28;20041;-87
2021/11/09 01:11:34;;;;;;;2.85;1.40;;;;;;;8.08;100.00;60892.56;4867011;28;20064;-88
2021/11/09 01:14:13;;;;;;;2.30;1.25;;;;;;;6.14;100.00;60892.56;4869634;28;20264;-87
2021/11/09 01:16:53;;;;;;;3.33;1.60;;;;;;;-145.06;100.00;60892.56;4873601;28;20037;-88
2021/11/09 01:19:33;;;;;;;2.75;1.35;;;;;;;-145.06;100.00;60892.56;4871560;28;20271;-87
2021/11/09 01:22:12;;;;;;;2.53;1.40;;;;;;;-145.06;100.00;60892.56;4868914;28;20068;-87
2021/11/09 01:24:51;;;;;;;1.77;1.30;;;;;;;-145.06;100.00;60892.56;4859793;28;20033;-88
2021/11/09 01:27:32;;;;;;;3.42;1.40;;;;;;;-145.06;100.00;60892.56;4864855;28;20367;-87
2021/11/09 01:30:11;;;;;;;2.92;1.33;;;;;;;-145.06;100.00;60892.56;4873250;28;20032;-88
2021/11/09 01:32:52;;;;;;;3.20;1.35;;;;;;;-145.06;100.00;60892.56;4879137;28;20028;-88
2021/11/09 01:35:31;;;;;;;1.55;1.20;;;;;;;-145.06;100.00;60892.56;4871486;28;20069;-87
2021/11/09 01:38:11;;;;;;;3.38;1.50;;;;;;;5.43;100.00;104794.97;4868108;28;20109;-87
2021/11/09 01:40:51;;;;;;;3.72;1.08;;;;;;;5.39;100.00;60892.56;4859829;28;20033;-88
2021/11/09 01:43:31;;;;;;;;;;;;;;;5.37;100.00;60892.56;4872875;28;20395;-88
2021/11/09 01:46:13;;;;;;;1.83;1.05;;;;;;;-145.06;100.00;60892.56;4869378;28;20539;-87
2021/11/09 01:48:53;;;;;;;1.30;0.98;;;;;;;5.32;100.00;60892.56;4873193;28;20367;-88
2021/11/09 01:51:32;;;;;;;2.03;1.15;;;;;;;5.49;100.00;60892.56;4869814;28;20033;-87
2021/11/09 01:54:11;;;;;;;2.05;1.23;;;;;;;5.30;100.00;60892.56;4874663;28;20033;-87
2021/11/09 01:56:50;;;;;;;2.20;1.27;;;;;;;5.26;100.00;60892.56;4871906;28;20356;-87
2021/11/09 01:59:32;;;;;;;1.38;0.90;;;;;;;5.49;100.00;60892.56;4874837;28;20028;-88
2021/11/09 02:02:10;;;;;;;2.85;1.30;;;;;;;5.23;100.00;60892.56;4883638;28;20024;-87
2021/11/09 02:04:49;;;;;;;1.42;1.08;;;;;;;-145.06;100.00;60892.56;4870012;28;20554;-88
2021/11/09 02:07:28;;;;;;;1.48;1.08;;;;;;;-145.06;100.00;60892.56;4871130;28;20112;-87
2021/11/09 02:10:07;;;;;;;1.80;1.20;;;;;;;-145.06;100.00;60892.56;4876540;28;20340;-87
2021/11/09 02:12:47;;;;;;;2.40;0.88;;;;;;;5.16;100.00;60892.56;4874262;28;20028;-88
2021/11/09 02:15:27;;;;;;;;;;;;;;;-145.06;100.00;60892.56;4866528;28;20479;-87
2021/11/09 02:18:07;;;;;;;;;;;;;;;-145.06;100.00;60892.56;4869807;28;19913;-88
2021/11/09 02:20:51;;;;;;;;;;;;;;;-145.06;100.00;60892.56;4870524;28;19912;-87
2021/11/09 02:23:33;;;;;;;0.63;0.60;;;;;;;-145.06;100.00;60892.56;4869422;28;19917;-87
2021/11/09 02:26:16;;;;;;;2.47;0.88;;;;;;;-145.06;100.00;60892.56;4875221;28;20040;-88
2021/11/09 02:28:58;;;;;;;1.67;0.90;;;;;;;-145.06;100.00;60892.56;4864488;28;20037;-87
2021/11/09 02:31:38;;;;;;;2.33;1.10;;;;;;;-145.06;100.00;60892.56;4867352;28;20072;-88
2021/11/09 02:34:17;;;;;;;1.90;1.10;;;;;;;-145.06;100.00;60892.56;4870639;28;20530;-86
2021/11/09 02:36:57;;;;;;;;;;;;;;;-145.06;100.00;60892.56;4859910;28;20116;-88
2021/11/09 02:39:36;;;;;;;2.30;1.10;;;;;;;-145.06;100.00;60892.56;4870429;28;19917;-88
2021/11/09 02:42:18;;;;;;;3.20;1.40;;;;;;;-145.06;100.00;60892.56;4880655;28;20032;-87
2021/11/09 02:45:08;;;;;;;2.60;1.30;;;;;;;-145.06;100.00;60892.56;4875944;28;20621;-87
2021/11/09 02:47:58;;;;;;;1.88;1.25;;;;;;;-145.06;100.00;60892.56;4871401;28;20025;-87
2021/11/09 02:50:41;;;;;;;2.80;1.50;;;;;;;-145.06;100.00;60892.56;4867519;28;20032;-88
2021/11/09 02:53:36;;;;;;;1.73;1.20;;;;;;;-145.06;100.00;60892.56;4874151;28;20029;-87
2021/11/09 02:56:30;;;;;;;2.95;1.17;;;;;;;187.52;100.00;60892.56;4877645;28;20029;-88
2021/11/09 03:02:08;;;;;;;1.67;1.02;;;;;;;-145.06;100.00;60892.56;4880408;28;20356;-88
2021/11/09 03:08:15;;;;;;;1.42;0.95;;;;;;;-145.06;100.00;60892.56;4891178;28;20115;-87
2021/11/09 03:10:55;;;;;;;1.33;0.90;;;;;;;-145.06;100.00;60892.56;4865230;28;20029;-87
2021/11/09 03:13:36;;;;;;;;;;;;;;;-145.06;100.00;60892.56;4873561;28;20103;-87
2021/11/09 03:16:16;;;;;;;2.17;1.05;;;;;;;-145.06;100.00;60892.56;4870062;28;19913;-87
2021/11/09 03:19:09;;;;;;;2.00;1.10;;;;;;;-145.06;100.00;60892.56;4874260;28;20037;-87
2021/11/09 03:45:40;;;;;;;1.27;0.90;;;;;;;-145.06;100.00;60892.56;4874552;28;20115;-87
2021/11/09 03:48:20;;;;;;;2.38;1.20;;;;;;;-145.06;100.00;60892.56;4870180;28;20033;-87
2021/11/09 03:51:00;;;;;;;1.90;1.07;;;;;;;-145.06;100.00;60892.56;4875042;28;20260;-87
2021/11/09 03:53:39;;;;;;;1.80;1.13;;;;;;;-145.06;100.00;60892.56;4868617;28;20280;-87
2021/11/09 03:56:25;;;;;;;1.80;1.25;;;;;;;-145.06;100.00;60892.56;4874557;28;20033;-87
2021/11/09 03:59:09;;;;;;;1.55;1.05;;;;;;;-145.06;100.00;60892.56;4870994;28;20037;-87
2021/11/09 04:02:03;;;;;;;2.00;1.17;;;;;;;-145.06;100.00;60892.56;4872137;28;20056;-87
2021/11/09 04:04:50;;;;;;;1.67;1.02;;;;;;;-145.06;100.00;60892.56;4877242;28;20029;-86
2021/11/09 04:10:18;;;;;;;1.53;0.90;;;;;;;-145.06;100.00;60892.56;4875192;28;20051;-88
2021/11/09 04:22:42;;;;;;;1.17;0.95;;;;;;;-145.06;100.00;60892.56;4867238;28;20045;-87
2021/11/09 04:28:07;;;;;;;1.40;1.02;;;;;;;-145.06;100.00;60892.56;4882288;28;20025;-87
2021/11/09 04:30:56;;;;;;;2.45;1.00;;;;;;;-145.06;100.00;60892.56;4873040;28;20554;-87
2021/11/09 05:09:23;;;;;;;1.10;0.88;;;;;;;-145.06;100.00;60892.56;4871715;28;20033;-87
2021/11/09 05:12:02;;;;;;;2.92;0.95;;;;;;;-145.06;100.00;60892.56;4862398;28;20040;-87
2021/11/09 05:14:41;;;;;;;4.35;1.55;;;;;;;-145.06;100.00;60892.56;4869794;28;20388;-87
2021/11/09 05:17:22;;;;;;;2.60;1.10;;;;;;;-145.06;100.00;60892.56;4866915;28;20044;-88
2021/11/09 05:20:02;;;;;;;1.23;0.80;;;;;;;-145.06;100.00;60892.56;4868481;28;20367;-87
2021/11/09 05:22:41;;;;;;;1.73;1.08;;;;;;;-145.06;100.00;60892.56;4866849;28;20116;-87
2021/11/09 05:25:20;;;;;;;1.60;0.90;;;;;;;-145.06;100.00;60892.56;4855512;28;20037;-87
2021/11/09 05:27:59;;;;;;;1.30;1.02;;;;;;;-145.06;100.00;60892.56;4873120;28;20426;-86
2021/11/09 05:30:39;;;;;;;1.93;1.20;;;;;;;4.17;100.00;60892.56;4870552;28;20036;-87
2021/11/09 05:33:21;;;;;;;2.05;1.00;;;;;;;4.14;100.00;60892.56;4872435;28;20275;-87
2021/11/09 05:36:01;;;;;;;3.05;1.27;;;;;;;4.12;100.00;60892.56;4876177;28;20691;-86
2021/11/09 05:38:53;;;;;;;;;;;;;;;4.12;100.00;60892.56;4874630;28;20054;-86
2021/11/09 05:41:35;;;;;;;1.55;0.95;;;;;;;-145.06;100.00;60892.56;4871690;28;19924;-86
2021/11/09 05:44:14;;;;;;;1.65;0.93;;;;;;;-145.06;100.00;60892.56;4865062;28;20045;-87
2021/11/09 05:46:53;;;;;;;2.30;1.00;;;;;;;-145.06;100.00;60892.56;4864899;28;20036;-86
2021/11/09 05:49:33;;;;;;;3.28;1.17;;;;;;;5.49;100.00;60892.56;4866831;28;20037;-87
2021/11/09 05:52:12;;;;;;;1.05;0.77;;;;;;;-145.06;100.00;60892.56;4867511;28;20037;-87
2021/11/09 05:54:51;;;;;;;1.08;0.82;;;;;;;-145.06;100.00;60892.56;4867690;28;20052;-87
2021/11/09 05:57:30;;;;;;;1.48;1.02;;;;;;;-145.06;100.00;60892.56;4869949;28;20036;-88
2021/11/09 06:00:10;;;;;;;1.23;0.93;;;;;;;-145.06;100.00;60892.56;4869340;28;20139;-88
2021/11/09 06:02:49;;;;;;;2.85;1.00;;;;;;;4.19;100.00;60892.56;4870973;28;20334;-87
2021/11/09 06:05:29;;;;;;;1.40;1.10;;;;;;;4.19;100.00;60892.56;4869669;28;20029;-88
2021/11/09 06:08:08;;;;;;;1.52;1.02;;;;;;;-145.06;100.00;60892.56;4870434;28;20115;-86
2021/11/09 06:10:48;;;;;;;1.90;1.00;;;;;;;-145.06;100.00;60892.56;4866838;28;20487;-87
2021/11/09 06:13:28;;;;;;;2.08;1.17;;;;;;;-145.06;100.00;60892.56;4871594;28;20360;-87
2021/11/09 06:16:07;;;;;;;;;;;;;;;-145.06;100.00;60892.56;4863152;28;20038;-88
2021/11/09 06:18:46;;;;;;;1.67;0.90;;;;;;;-145.06;100.00;60892.56;4866147;28;19916;-87
2021/11/09 06:21:25;;;;;;;2.20;1.35;;;;;;;5.49;100.00;60892.56;4871380;28;20056;-87
2021/11/09 06:24:04;;;;;;;2.33;1.10;;;;;;;3.98;100.00;60892.56;4876809;28;20071;-86
2021/11/09 06:26:45;;;;;;;2.17;1.17;;;;;;;3.97;100.00;60892.56;4870796;28;20037;-86
2021/11/09 06:29:24;;;;;;;2.20;1.05;;;;;;;-145.06;100.00;60892.56;4877783;28;20131;-87
2021/11/09 06:32:04;;;;;;;3.80;1.40;;;;;;;-145.06;100.00;60892.56;4872986;28;20044;-87
2021/11/09 06:34:43;;;;;;;2.03;1.02;;;;;;;-145.06;100.00;60892.56;4881004;28;20294;-86
2021/11/09 06:37:22;;;;;;;2.10;1.00;;;;;;;-145.06;100.00;60892.56;4882744;28;20029;-86
2021/11/09 06:40:05;;;;;;;1.85;1.15;;;;;;;10.68;100.00;60892.56;4875118;28;20487;-86
2021/11/09 06:42:44;;;;;;;2.22;0.90;;;;;;;5.49;100.00;60892.56;4879340;28;20060;-86
2021/11/09 06:45:23;;;;;;;1.65;0.90;;;;;;;3.94;100.00;60892.56;4868536;28;20037;-86
2021/11/09 06:48:04;;;;;;;2.13;1.00;;;;;;;-145.06;100.00;60892.56;4878534;28;20501;-86
2021/11/09 06:50:43;;;;;;;1.10;0.90;;;;;;;5.49;100.00;60892.56;4878042;28;20214;-86
2021/11/09 06:53:22;;;;;;;1.63;1.17;;;;;;;10.68;100.00;60892.56;4868283;28;20496;-86
2021/11/09 06:56:01;;;;;;;1.83;1.13;;;;;;;4.03;100.00;60892.56;4880322;28;20029;-87
2021/11/09 06:58:41;;;;;;;1.10;0.90;;;;;;;3.93;100.00;60892.56;4877078;28;20033;-86
2021/11/09 07:01:21;;;;;;;1.27;0.82;;;;;;;4.19;100.00;60892.56;4874997;28;20119;-87
2021/11/09 07:04:00;;;;;;;;;;;;;;;3.92;100.00;60892.56;4871534;28;20112;-86
2021/11/09 07:06:39;;;;;;;1.93;1.07;;;;;;;-145.06;100.00;60892.56;4873983;28;19913;-87
2021/11/09 07:09:18;;;;;;;2.30;1.10;;;;;;;-145.06;100.00;60892.56;4876252;28;20271;-87
2021/11/09 07:11:58;;;;;;;2.55;1.10;;;;;;;10.68;100.00;60892.56;4879207;28;20044;-88
2021/11/09 07:14:37;;;;;;;1.57;1.10;;;;;;;10.68;100.00;60892.56;4874150;28;20383;-87
2021/11/09 07:17:16;;;;;;;1.50;0.88;;;;;;;4.00;100.00;60892.56;4867102;28;20737;-87
2021/11/09 07:19:57;;;;;;;2.25;1.30;;;;;;;4.03;100.00;60892.56;4863888;28;20030;-87
2021/11/09 07:22:36;;;;;;;1.55;1.08;;;;;;;-145.06;100.00;60892.56;4855297;28;20034;-86
2021/11/09 07:25:16;;;;;;;3.00;1.27;;;;;;;10.68;100.00;60892.56;4874283;28;20104;-87
2021/11/09 07:27:56;;;;;;;1.88;1.10;;;;;;;4.10;100.00;60892.56;4881242;28;20029;-87
2021/11/09 07:30:53;;;;;;;2.85;1.08;;;;;;;4.15;100.00;60892.56;4876430;28;20562;-87
2021/11/09 07:33:33;;;;;;;1.92;1.00;;;;;;;4.19;100.00;60892.56;4873387;28;20037;-88
2021/11/09 07:36:13;;;;;;;1.15;0.90;;;;;;;-145.06;100.00;60892.56;4875522;28;20037;-87
2021/11/09 07:38:53;;;;;;;1.67;1.05;;;;;;;-145.06;100.00;60892.56;4870555;28;20466;-87
2021/11/09 07:41:32;;;;;;;1.48;0.90;;;;;;;-145.06;100.00;60892.56;4876117;28;20115;-88
2021/11/09 07:44:12;;;;;;;2.42;1.10;;;;;;;-145.06;100.00;60892.56;4867288;28;20104;-86
2021/11/09 07:46:53;;;;;;;1.27;0.95;;;;;;;-145.06;100.00;60892.56;4865271;28;20030;-87
2021/11/09 07:49:32;;;;;;;1.17;0.90;;;;;;;-145.06;100.00;60892.56;4875199;28;20041;-87
2021/11/09 07:52:12;;;;;;;3.22;1.38;;;;;;;-145.06;100.00;60892.56;4874183;28;20037;-87
2021/11/09 07:54:57;;;;;;;1.35;1.23;;;;;;;4.84;100.00;60892.56;4872969;28;20021;-86
2021/11/09 07:57:45;;;;;;;1.80;1.30;;;;;;;-145.06;100.00;60892.56;4877341;28;20025;-87
2021/11/09 08:00:50;;;;;;;2.78;1.38;;;;;;;-145.06;100.00;60892.56;4872235;28;20041;-87
2021/11/09 08:03:34;;;;;;;2.63;1.35;;;;;;;4.59;100.00;60892.56;4854060;28;20140;-86
2021/11/09 08:06:24;;;;;;;3.70;2.03;;;;;;;-145.06;100.00;60892.56;4874328;28;20367;-88
2021/11/09 08:11:50;;;;;;;4.93;2.17;;;;;;;-145.06;100.00;60892.56;4874133;28;20028;-87
2021/11/09 08:14:28;;;;;;;;;;;;;;;-145.06;100.00;60892.56;4866881;28;20026;-87
2021/11/09 08:17:08;;;;;;;2.37;1.60;;;;;;;-145.06;100.00;60892.56;4888133;28;20358;-87
2021/11/09 08:19:47;;;;;;;3.75;1.70;;;;;;;-145.06;100.00;60892.56;4869586;28;20256;-87
2021/11/09 08:22:26;;;;;;;2.70;1.60;;;;;;;-145.06;100.00;60892.56;4885919;28;20060;-88
2021/11/09 08:25:06;;;;;;;3.50;1.67;;;;;;;-145.06;100.00;60892.56;4877439;28;20028;-88
2021/11/09 08:27:46;;;;;;;3.88;1.60;;;;;;;-145.06;100.00;60892.56;4870986;28;20067;-87
2021/11/09 08:30:25;;;;;;;3.40;1.75;;;;;;;-145.06;100.00;60892.56;4888369;28;20036;-87
2021/11/09 08:33:05;;;;;;;2.25;1.73;;;;;;;-145.06;100.00;60892.56;4880752;28;20479;-88
2021/11/09 08:35:43;;;;;;;3.97;1.90;;;;;;;-145.06;100.00;60892.56;4874612;28;20033;-86
2021/11/09 08:38:23;;;;;;;3.47;2.00;;;;;;;-145.06;100.00;60892.56;4862516;28;20029;-87
2021/11/09 08:41:02;;;;;;;2.42;1.83;;;;;;;-145.06;100.00;60892.56;4864925;28;20061;-86
2021/11/09 08:43:53;;;;;;;2.75;1.60;;;;;;;-145.06;100.00;60892.56;4876601;28;20059;-87
2021/11/09 08:46:39;;;;;;;2.85;1.42;;;;;;;-145.06;100.00;60892.56;4873881;28;20041;-87
2021/11/09 08:49:19;;;;;;;3.25;1.80;;;;;;;-145.06;100.00;60892.56;4870789;28;20025;-87
2021/11/09 08:52:03;;;;;;;2.20;1.50;;;;;;;-145.06;100.00;60892.56;4867590;28;20139;-87
2021/11/09 09:04:40;;;;;;;3.05;1.50;;;;;;;-145.06;100.00;60892.56;4893541;28;20028;-88
2021/11/09 09:07:03;;;;;;;2.40;1.40;;;;;;;-145.06;100.00;60892.56;4874702;28;20048;-87
2021/11/09 09:09:42;;;;;;;1.98;1.33;;;;;;;-145.06;100.00;60892.56;4865376;28;20072;-87
2021/11/09 09:12:21;;;;;;;2.28;1.20;;;;;;;-145.06;100.00;60892.56;4869624;28;20033;-89
2021/11/09 09:15:01;;;;;;;5.33;1.47;;;;;;;-145.06;100.00;60892.56;4869237;28;20490;-88
2021/11/09 09:17:40;;;;;;;;;;;;;;;-145.06;100.00;60892.56;4869920;28;20033;-88
2021/11/09 09:20:26;;;;;;;1.55;1.00;;;;;;;-145.06;100.00;60892.56;4874066;28;20438;-87
2021/11/09 09:23:10;;;;;;;2.13;1.10;;;;;;;-145.06;100.00;60892.56;4863142;28;20444;-87
2021/11/09 09:57:37;;;;;;;1.45;0.82;;;;;;;-145.06;100.00;60892.56;4854804;28;20029;-88
2021/11/09 10:00:18;;;;;;;1.58;0.80;;;;;;;-145.06;100.00;60892.56;4863872;28;20033;-88
2021/11/09 10:02:57;;;;;;;1.50;1.00;;;;;;;-145.06;100.00;60892.56;4880949;28;20025;-88
2021/11/09 10:05:41;;;;;;;;;;;;;;;-145.06;100.00;60892.56;4874152;28;20029;-88
2021/11/09 10:08:20;;;;;;;1.20;0.65;;;;;;;-145.06;100.00;60892.56;4867186;28;19917;-88
2021/11/09 10:10:59;;;;;;;1.23;0.85;;;;;;;-145.06;100.00;60892.56;4873433;28;20029;-88
2021/11/09 10:13:40;;;;;;;1.08;0.70;;;;;;;-145.06;100.00;60892.56;4870758;28;20033;-88
2021/11/09 10:16:19;;;;;;;0.73;0.60;;;;;;;-145.06;100.00;60892.56;4867159;28;20048;-88
2021/11/09 10:18:58;;;;;;;3.03;1.03;;;;;;;-145.06;100.00;60892.56;4865020;28;20029;-88
2021/11/09 10:21:40;;;;;;;2.17;0.83;;;;;;;-145.06;100.00;60892.56;4861273;28;20260;-89
2021/11/09 10:24:29;;;;;;;1.10;0.65;;;;;;;-145.06;100.00;60892.56;4877550;28;20096;-88
2021/11/09 10:27:13;;;;;;;1.20;0.68;;;;;;;-145.06;100.00;60892.56;4855360;28;20056;-88
2021/11/09 10:29:54;;;;;;;1.25;0.60;;;;;;;-145.06;100.00;60892.56;4873424;28;20064;-88
2021/11/09 10:32:33;;;;;;;1.70;0.90;;;;;;;-145.06;100.00;60892.56;4860464;28;20365;-88
2021/11/09 10:35:15;;;;;;;1.30;0.70;;;;;;;11.87;100.00;60892.56;4858351;28;20025;-88
2021/11/09 10:37:57;;;;;;;2.20;0.80;;;;;;;-145.06;100.00;60892.56;4862408;28;20064;-88
2021/11/09 10:40:44;;;;;;;1.90;0.70;;;;;;;-145.06;100.00;60892.56;4869573;28;20061;-88
2021/11/09 10:43:25;;;;;;;2.50;0.70;;;;;;;-145.06;100.00;60892.56;4870136;28;20041;-88
2021/11/09 10:46:04;;;;;;;0.70;0.52;;;;;;;-145.06;100.00;60892.56;4857063;28;20029;-89
2021/11/09 10:48:43;;;;;;;1.37;0.80;;;;;;;-145.06;100.00;60892.56;4861737;28;20033;-88
2021/11/09 10:51:23;;;;;;;3.13;0.90;;;;;;;-145.06;100.00;60892.56;4870730;28;20404;-88
2021/11/09 10:54:06;;;;;;;1.40;0.73;;;;;;;-145.06;100.00;60892.56;4881365;28;20029;-89
2021/11/09 10:56:58;;;;;;;0.65;0.63;;;;;;;-145.06;100.00;60892.56;4853498;28;20033;-88
2021/11/09 10:59:49;;;;;;;1.55;0.80;;;;;;;-145.06;100.00;60892.56;4869948;28;20112;-88
2021/11/09 11:05:26;;;;;;;1.17;0.70;;;;;;;-145.06;100.00;60892.56;4854910;28;20025;-88
2021/11/09 11:08:05;;;;;;;1.88;0.70;;;;;;;-145.06;100.00;60892.56;4858416;28;20029;-87
2021/11/09 11:10:44;;;;;;;1.35;0.60;;;;;;;14.07;100.00;60892.56;4873489;28;20040;-88
2021/11/09 11:13:24;;;;;;;1.23;0.63;;;;;;;-145.06;100.00;60892.56;4871053;28;20383;-88
2021/11/09 11:16:05;;;;;;;;;;;;;;;-145.06;100.00;60892.56;4870504;28;20288;-88
2021/11/09 11:18:55;;;;;;;1.40;0.70;;;;;;;-145.06;100.00;60892.56;4877451;28;19920;-89
2021/11/09 11:21:35;;;;;;;1.58;0.70;;;;;;;-145.06;100.00;60892.56;4872491;28;20033;-87
2021/11/09 11:24:14;;;;;;;0.95;0.45;;;;;;;-145.06;100.00;60892.56;4873031;28;20044;-88
2021/11/09 11:26:56;;;;;;;0.60;0.52;;;;;;;-145.06;100.00;60892.56;4884421;28;20025;-88
2021/11/09 11:29:36;;;;;;;0.85;0.60;;;;;;;-145.06;100.00;60892.56;4877376;28;20049;-88
2021/11/09 11:32:19;;;;;;;0.75;0.73;;;;;;;-145.06;100.00;60892.56;4867054;28;20411;-88
2021/11/09 11:34:59;;;;;;;0.70;0.50;;;;;;;-145.06;100.00;60892.56;4867455;28;20471;-89
2021/11/09 11:37:38;;;;;;;0.90;0.50;;;;;;;-145.06;100.00;60892.56;4874568;28;20029;-88
2021/11/09 11:40:17;;;;;;;2.20;0.60;;;;;;;-145.06;100.00;60892.56;4866708;28;20069;-88
2021/11/09 11:42:56;;;;;;;1.63;0.50;;;;;;;-145.06;100.00;60892.56;4874760;28;20068;-88
2021/11/09 11:45:46;;;;;;;0.80;0.47;;;;;;;-145.06;100.00;60892.56;4866240;28;20025;-87
2021/11/09 11:48:25;;;;;;;0.75;0.50;;;;;;;15.59;100.00;60892.56;4872230;28;20481;-87
2021/11/09 11:51:12;;;;;;;0.73;0.47;;;;;;;15.61;100.00;80864.41;4880134;28;20068;-88
2021/11/09 11:53:54;;;;;;;1.70;0.40;;;;;;;-145.06;100.00;60892.56;4887682;28;20025;-87
2021/11/09 11:56:41;;;;;;;1.48;0.52;;;;;;;-145.06;100.00;60892.56;4879154;28;20100;-88
2021/11/09 11:59:23;;;;;;;0.70;0.50;;;;;;;-145.06;100.00;60892.56;4889907;28;20033;-88
2021/11/09 12:02:08;;;;;;;1.25;0.60;;;;;;;-145.06;100.00;60892.56;4888834;28;20024;-88
2021/11/09 12:04:50;;;;;;;1.75;0.60;;;;;;;-145.06;100.00;60892.56;4886435;28;20379;-88
2021/11/09 12:07:50;;;;;;;1.38;0.60;;;;;;;-145.06;100.00;60892.56;4873753;28;20392;-88
2021/11/09 12:10:40;;;;;;;;;;;;;;;-145.06;100.00;60892.56;4860308;28;20025;-89
2021/11/09 12:13:23;;;;;;;0.77;0.45;;;;;;;-145.06;100.00;60892.56;4870879;28;19913;-88
2021/11/09 12:16:03;;;;;;;3.47;0.50;;;;;;;-145.06;100.00;60892.56;4869675;28;20028;-88
2021/11/09 12:18:42;;;;;;;0.80;0.40;;;;;;;-145.06;100.00;60892.56;4873579;28;20036;-87
2021/11/09 12:21:21;;;;;;;3.97;0.95;;;;;;;-145.06;100.00;60892.56;4858075;28;20037;-87
2021/11/09 12:24:09;;;;;;;2.33;0.70;;;;;;;-145.06;100.00;60892.56;4875733;28;20033;-88
2021/11/09 12:26:58;;;;;;;1.38;0.50;;;;;;;-145.06;100.00;60892.56;4870111;28;20123;-88
2021/11/09 12:29:40;;;;;;;0.73;0.45;;;;;;;-145.06;100.00;60892.56;4872800;28;20048;-89
2021/11/09 12:32:35;;;;;;;1.38;0.60;;;;;;;-145.06;100.00;60892.56;4882482;28;20123;-88
2021/11/09 12:35:14;;;;;;;0.98;0.32;;;;;;;-145.06;100.00;60892.56;4873432;28;20041;-87
2021/11/09 12:38:02;;;;;;;1.80;0.60;;;;;;;-145.06;100.00;60892.56;4856128;28;20360;-88
2021/11/09 12:40:45;;;;;;;1.25;0.50;;;;;;;-145.06;100.00;60892.56;4861177;28;20490;-87
2021/11/09 12:43:44;;;;;;;1.33;0.50;;;;;;;-145.06;100.00;60892.56;4871099;28;20032;-87
2021/11/09 12:46:39;;;;;;;0.80;0.40;;;;;;;-145.06;100.00;60892.56;4860181;28;20021;-87
2021/11/09 12:49:24;;;;;;;1.35;0.73;;;;;;;-145.06;100.00;60892.56;4872947;28;20028;-87
2021/11/09 12:52:04;;;;;;;0.77;0.40;;;;;;;-145.06;100.00;60892.56;4871421;28;20517;-88
2021/11/09 12:54:43;;;;;;;0.80;0.60;;;;;;;-145.06;100.00;60892.56;4870762;28;20024;-88
2021/11/09 12:57:22;;;;;;;1.10;0.70;;;;;;;-145.06;100.00;60892.56;4872069;28;20045;-88
2021/11/09 13:00:08;;;;;;;0.98;0.60;;;;;;;-145.06;100.00;60892.56;4869558;28;20474;-88
2021/11/09 13:02:52;;;;;;;1.30;0.60;;;;;;;-145.06;100.00;60892.56;4860544;28;20491;-88
2021/11/09 13:05:51;;;;;;;0.77;0.55;;;;;;;-145.06;100.00;60892.56;4863597;28;20026;-90
2021/11/09 13:08:42;;;;;;;1.70;0.67;;;;;;;-145.06;100.00;60892.56;4860283;28;20030;-88
2021/11/09 13:11:31;;;;;;;0.93;0.60;;;;;;;-145.06;100.00;60892.56;4872754;28;20295;-89
2021/11/09 13:14:11;;;;;;;1.17;0.77;;;;;;;-145.06;100.00;60892.56;4858017;28;20025;-88
2021/11/09 13:16:51;;;;;;;1.10;0.70;;;;;;;-145.06;100.00;60892.56;4862188;28;20029;-87
2021/11/09 13:19:37;;;;;;;1.00;0.70;;;;;;;-145.06;100.00;60892.56;4858777;28;20447;-88
2021/11/09 13:22:18;;;;;;;2.35;0.85;;;;;;;-145.06;100.00;60892.56;4868009;28;20033;-88
2021/11/09 13:25:06;;;;;;;1.20;0.60;;;;;;;-145.06;100.00;60892.56;4871467;28;20068;-88
2021/11/09 13:27:48;;;;;;;0.70;0.50;;;;;;;-145.06;100.00;60892.56;4872076;28;20037;-88
2021/11/09 13:30:27;;;;;;;1.15;0.52;;;;;;;-145.06;100.00;60892.56;4865932;28;20041;-88
2021/11/09 13:33:07;;;;;;;1.30;0.60;;;;;;;-145.06;100.00;60892.56;4868246;28;20033;-88
2021/11/09 13:35:47;;;;;;;1.38;0.60;;;;;;;-145.06;100.00;60892.56;4868645;28;20279;-88
2021/11/09 13:38:42;;;;;;;3.05;0.90;;;;;;;-145.06;100.00;60892.56;4868553;28;20470;-88
2021/11/09 13:41:30;;;;;;;1.52;0.77;;;;;;;-145.06;100.00;60892.56;4857907;28;20029;-88
2021/11/09 13:44:12;;;;;;;1.02;0.63;;;;;;;-145.06;100.00;60892.56;4863752;28;20487;-87
2021/11/09 13:46:51;;;;;;;1.45;0.75;;;;;;;14.54;100.00;60892.56;4868283;28;20029;-90
2021/11/09 13:49:30;;;;;;;1.75;0.80;;;;;;;14.51;100.00;60892.56;4870179;28;20036;-88
2021/11/09 13:52:10;;;;;;;1.63;0.80;;;;;;;-145.06;100.00;60892.56;4871942;28;20120;-89
2021/11/09 13:54:49;;;;;;;0.95;0.55;;;;;;;-145.06;100.00;60892.56;4866100;28;20033;-88
2021/11/09 13:57:29;;;;;;;0.93;0.63;;;;;;;-145.06;100.00;60892.56;4871901;28;20482;-88
2021/11/09 14:00:31;;;;;;;1.35;0.60;;;;;;;14.31;100.00;60892.56;4866588;28;20040;-88
2021/11/09 14:08:57;;;;;;;1.48;0.77;;;;;;;-145.06;100.00;60892.56;4869327;28;20037;-87
2021/11/09 14:14:30;;;;;;;3.28;1.20;;;;;;;-145.06;100.00;60892.56;4873297;28;20068;-88
2021/11/09 14:17:09;;;;;;;1.45;0.90;;;;;;;14.58;100.00;60892.56;4868330;28;20028;-87
2021/11/09 14:19:49;;;;;;;4.05;0.90;;;;;;;-145.06;100.00;60892.56;4857416;28;20492;-87
2021/11/09 14:22:28;;;;;;;8.88;1.70;;;;;;;-145.06;100.00;60892.56;4856005;28;20028;-87
2021/11/09 14:25:09;;;;;;;1.67;0.65;;;;;;;-145.06;100.00;60892.56;4870156;28;20025;-88
2021/11/09 14:27:48;;;;;;;1.35;0.80;;;;;;;-145.06;100.00;60892.56;4869990;28;20025;-88
2021/11/09 14:30:28;;;;;;;2.97;1.50;;;;;;;-145.06;100.00;60892.56;4871079;28;20057;-88
2021/11/09 14:33:15;;;;;;;3.13;1.50;;;;;;;-145.06;100.00;60892.56;4868984;28;20029;-88
2021/11/09 14:35:55;;;;;;;3.33;1.40;;;;;;;-145.06;100.00;60892.56;4855400;28;20034;-88
2021/11/09 14:38:34;;;;;;;2.63;1.70;;;;;;;-145.06;100.00;60892.56;4870046;28;20104;-88
2021/11/09 14:41:23;;;;;;;7.07;4.22;;;;;;;-145.06;100.00;60892.56;4871154;28;20375;-88